Terminal Aerodrome Forecast
Issued by NWS Green Bay, WI

Home | Current Version | Previous Version | Graphics & Text | Print | Product List | Glossary On
Versions: 1 2 3 4 5 6 7 8 9 10 11 12 13 14 15 16 17 18 19 20 21 22 23 24 25 26 27 28 29 30 31
000
FTUS43 KGRB 212329
TAFGRB
TAF
KGRB 212329Z 2200/2224 29006KT P6SM SCT050 SCT090
     FM220300 26003KT P6SM SKC
     FM221500 22008KT P6SM SCT030
     FM221900 20012G18KT P6SM SCT040=

USA.gov is the U.S. government's official web portal to all federal, state and local government web resources and services.